createdAt,value
2022-12-15T00:02:25.351Z,72.23
2022-12-15T00:05:10.298Z,72.13
2022-12-15T00:07:55.532Z,73.57
2022-12-15T00:10:40.709Z,73.13
2022-12-15T00:13:31.352Z,73.12
2022-12-15T00:16:17.201Z,73.08
2022-12-15T00:19:02.798Z,72.69
2022-12-15T00:21:48.503Z,72.45
2022-12-15T00:24:33.675Z,72.31
2022-12-15T00:27:19.348Z,72.62
2022-12-15T00:30:04.889Z,72.87
2022-12-15T00:32:50.119Z,73.49
2022-12-15T00:35:35.421Z,72.50
2022-12-15T00:38:29.006Z,72.16
2022-12-15T00:40:59.330Z,72.56
2022-12-15T00:43:28.549Z,72.17
2022-12-15T00:46:14.089Z,71.47
2022-12-15T00:48:41.281Z,72.34
2022-12-15T00:51:08.435Z,72.56
2022-12-15T00:53:53.915Z,72.23
2022-12-15T00:56:39.270Z,73.17
2022-12-15T00:59:24.639Z,72.41
2022-12-15T01:02:09.977Z,73.51
2022-12-15T01:04:55.239Z,72.59
2022-12-15T01:07:40.411Z,72.33
2022-12-15T01:10:26.243Z,71.26
2022-12-15T01:13:11.871Z,71.33
2022-12-15T01:15:57.626Z,72.76
2022-12-15T01:18:42.931Z,73.22
2022-12-15T01:21:11.215Z,73.98
2022-12-15T01:23:38.959Z,73.78
2022-12-15T01:26:06.790Z,73.96
2022-12-15T01:28:33.353Z,73.73
2022-12-15T01:31:00.191Z,72.17
2022-12-15T01:33:26.847Z,71.77
2022-12-15T01:35:57.386Z,72.38
2022-12-15T01:38:24.495Z,72.59
2022-12-15T01:40:58.769Z,71.55
2022-12-15T01:43:29.518Z,72.13
2022-12-15T01:46:06.857Z,72.33
2022-12-15T01:48:38.123Z,73.18
2022-12-15T01:51:19.422Z,73.08
2022-12-15T01:54:26.525Z,73.50
2022-12-15T01:56:58.527Z,72.28
2022-12-15T01:59:41.023Z,71.97
2022-12-15T02:02:08.339Z,72.54
2022-12-15T02:04:35.346Z,72.39
2022-12-15T02:07:04.125Z,72.57
2022-12-15T02:09:31.185Z,73.63
2022-12-15T02:12:07.117Z,73.22
2022-12-15T02:14:58.292Z,72.83
2022-12-15T02:17:27.818Z,72.61
2022-12-15T02:20:09.344Z,72.99
2022-12-15T02:22:59.168Z,71.63
2022-12-15T02:25:34.875Z,72.84
2022-12-15T02:28:08.408Z,72.53
2022-12-15T02:31:14.450Z,73.62
2022-12-15T02:33:51.952Z,73.24
2022-12-15T02:36:28.444Z,73.26
2022-12-15T02:38:55.426Z,71.13
2022-12-15T02:41:46.185Z,71.59
2022-12-15T02:44:31.731Z,72.18
2022-12-15T02:47:19.772Z,72.49
2022-12-15T02:50:11.172Z,71.65
2022-12-15T02:52:40.861Z,71.20
2022-12-15T02:55:17.114Z,71.69
2022-12-15T02:58:06.845Z,72.72
2022-12-15T03:00:40.878Z,72.28
2022-12-15T03:03:08.385Z,73.42
2022-12-15T03:05:35.614Z,72.65
2022-12-15T03:08:02.361Z,73.32
2022-12-15T03:10:29.128Z,72.57
2022-12-15T03:12:55.910Z,71.70
2022-12-15T03:15:22.603Z,72.23
2022-12-15T03:17:49.370Z,72.28
2022-12-15T03:20:16.051Z,72.51
2022-12-15T03:22:42.782Z,72.02
2022-12-15T03:25:09.526Z,72.49
2022-12-15T03:27:36.362Z,70.74
2022-12-15T03:30:03.737Z,71.79
2022-12-15T03:32:30.515Z,71.06
2022-12-15T03:34:57.487Z,72.94
2022-12-15T03:37:24.147Z,72.58
2022-12-15T03:39:50.855Z,70.55
2022-12-15T03:42:37.610Z,71.60
2022-12-15T03:45:04.866Z,71.80
2022-12-15T03:47:32.039Z,72.00
2022-12-15T03:49:58.664Z,72.24
2022-12-15T03:52:25.594Z,73.08
2022-12-15T03:54:52.474Z,72.09
2022-12-15T03:57:19.099Z,71.78
2022-12-15T03:59:45.771Z,71.99
2022-12-15T04:02:12.661Z,72.92
2022-12-15T04:04:39.703Z,73.41
2022-12-15T04:07:06.398Z,73.11
2022-12-15T04:09:33.063Z,72.33
2022-12-15T04:11:59.655Z,71.96
2022-12-15T04:14:26.339Z,72.72
2022-12-15T04:16:53.067Z,72.35
2022-12-15T04:19:38.446Z,72.43
2022-12-15T04:22:05.105Z,72.72
2022-12-15T04:24:50.385Z,72.28
2022-12-15T04:27:35.538Z,72.25
2022-12-15T04:30:20.839Z,72.63
2022-12-15T04:33:06.097Z,73.76
2022-12-15T04:35:52.890Z,73.42
2022-12-15T04:38:49.886Z,74.42
2022-12-15T04:41:37.857Z,72.31
2022-12-15T04:44:23.790Z,74.10
2022-12-15T04:47:09.054Z,75.11
2022-12-15T04:49:54.230Z,73.61
2022-12-15T04:52:39.416Z,73.74
2022-12-15T04:55:25.451Z,73.40
2022-12-15T04:58:10.688Z,73.26
2022-12-15T05:00:55.976Z,74.07
2022-12-15T05:03:41.046Z,73.45
2022-12-15T05:06:26.702Z,72.72
2022-12-15T05:09:11.949Z,73.21
2022-12-15T05:11:57.323Z,73.63
2022-12-15T05:14:42.570Z,73.82
2022-12-15T05:17:28.056Z,74.23
2022-12-15T05:20:13.423Z,73.43
2022-12-15T05:22:59.562Z,72.68
2022-12-15T05:25:44.601Z,73.20
2022-12-15T05:28:30.053Z,73.65
2022-12-15T05:31:15.501Z,73.69
2022-12-15T05:33:42.274Z,73.04
2022-12-15T05:36:09.193Z,74.01
2022-12-15T05:38:35.964Z,74.42
2022-12-15T05:41:02.555Z,73.66
2022-12-15T05:43:29.831Z,73.08
2022-12-15T05:45:56.690Z,74.02
2022-12-15T05:48:23.398Z,74.08
2022-12-15T05:50:50.602Z,74.08
2022-12-15T05:53:17.384Z,74.46
2022-12-15T05:55:44.158Z,73.82
2022-12-15T05:58:10.751Z,74.26
2022-12-15T06:00:37.487Z,73.34
2022-12-15T06:03:04.528Z,73.52
2022-12-15T06:05:31.147Z,74.56
2022-12-15T06:07:59.951Z,74.48
2022-12-15T06:10:26.696Z,74.32
2022-12-15T06:12:54.205Z,74.49
2022-12-15T06:15:20.807Z,74.24
2022-12-15T06:17:49.776Z,74.87
2022-12-15T06:20:16.583Z,74.72
2022-12-15T06:22:49.448Z,74.34
2022-12-15T06:25:17.714Z,74.62
2022-12-15T06:27:44.354Z,74.33
2022-12-15T06:30:11.248Z,74.27
2022-12-15T06:32:37.796Z,74.63
2022-12-15T06:35:04.805Z,75.73
2022-12-15T06:37:31.335Z,76.21
2022-12-15T06:39:57.924Z,75.45
2022-12-15T06:42:24.576Z,75.93
2022-12-15T06:44:51.285Z,76.80
2022-12-15T06:47:17.878Z,75.88
2022-12-15T06:49:44.618Z,76.04
2022-12-15T06:52:11.215Z,74.72
2022-12-15T06:54:38.660Z,75.57
2022-12-15T06:57:05.745Z,75.29
2022-12-15T06:59:32.361Z,75.69
2022-12-15T07:02:00.541Z,75.46
2022-12-15T07:04:27.512Z,75.50
2022-12-15T07:06:54.306Z,74.94
2022-12-15T07:09:21.017Z,75.75
2022-12-15T07:11:50.346Z,74.87
2022-12-15T07:14:17.095Z,74.76
2022-12-15T07:16:43.974Z,75.32
2022-12-15T07:19:12.560Z,76.19
2022-12-15T07:21:39.198Z,75.70
2022-12-15T07:24:06.492Z,75.94
2022-12-15T07:26:34.112Z,75.84
2022-12-15T07:29:00.779Z,77.25
2022-12-15T07:31:27.471Z,77.41
2022-12-15T07:33:54.878Z,77.66
2022-12-15T07:36:22.094Z,77.00
2022-12-15T07:38:49.926Z,76.85
2022-12-15T07:41:18.559Z,77.91
2022-12-15T07:43:46.593Z,78.64
2022-12-15T07:46:14.166Z,78.04
2022-12-15T07:48:41.104Z,78.52
2022-12-15T07:51:17.113Z,79.57
2022-12-15T07:53:46.833Z,79.07
2022-12-15T07:56:13.985Z,79.36
2022-12-15T07:58:40.998Z,78.59
2022-12-15T08:01:10.520Z,79.71
2022-12-15T08:03:38.823Z,80.02
2022-12-15T08:06:11.707Z,78.57
2022-12-15T08:08:39.576Z,80.48
2022-12-15T08:11:07.547Z,81.00
2022-12-15T08:16:22.216Z,79.70
2022-12-15T08:18:49.138Z,79.47
2022-12-15T08:21:16.208Z,80.31
2022-12-15T08:23:42.822Z,79.81
2022-12-15T08:26:12.273Z,80.49
2022-12-15T08:28:40.169Z,79.89
2022-12-15T08:31:18.821Z,79.63
2022-12-15T08:33:46.503Z,79.18
2022-12-15T08:36:14.901Z,79.30
2022-12-15T08:38:43.452Z,79.98
2022-12-15T08:41:16.891Z,81.21
2022-12-15T08:43:48.695Z,80.76
2022-12-15T08:46:17.999Z,80.58
2022-12-15T08:48:45.147Z,81.03
2022-12-15T08:51:12.072Z,81.10
2022-12-15T08:53:38.825Z,80.92
2022-12-15T08:56:17.290Z,80.92
2022-12-15T08:58:45.561Z,82.07
2022-12-15T09:01:22.896Z,82.65
2022-12-15T09:03:52.245Z,83.35
2022-12-15T09:06:22.419Z,82.78
2022-12-15T09:08:50.496Z,82.61
2022-12-15T09:11:17.624Z,82.33
2022-12-15T09:13:44.614Z,83.05
2022-12-15T09:16:14.103Z,82.43
2022-12-15T09:18:52.722Z,82.66
2022-12-15T09:21:25.091Z,81.61
2022-12-15T09:23:54.760Z,82.16
2022-12-15T09:26:23.131Z,83.09
2022-12-15T09:28:51.880Z,83.59
2022-12-15T09:31:24.589Z,83.08
2022-12-15T09:33:53.401Z,83.87
2022-12-15T09:36:21.235Z,82.24
2022-12-15T09:38:48.040Z,82.14
2022-12-15T09:41:17.270Z,82.38
2022-12-15T09:44:11.678Z,81.88
2022-12-15T09:47:05.855Z,81.87
2022-12-15T09:49:35.319Z,83.74
2022-12-15T09:52:29.319Z,84.14
2022-12-15T09:54:58.221Z,83.31
2022-12-15T09:57:45.977Z,82.09
2022-12-15T10:00:41.818Z,82.82
2022-12-15T10:03:32.945Z,83.08
2022-12-15T10:06:21.476Z,83.58
2022-12-15T10:08:58.423Z,83.79
2022-12-15T10:11:45.259Z,84.35
2022-12-15T10:14:36.022Z,83.86
2022-12-15T10:17:06.976Z,84.72
2022-12-15T10:19:41.862Z,84.11
2022-12-15T10:22:27.143Z,83.05
2022-12-15T10:25:11.139Z,82.86
2022-12-15T10:27:53.430Z,82.16
2022-12-15T10:30:21.791Z,82.14
2022-12-15T10:33:25.323Z,82.21
2022-12-15T10:35:55.500Z,81.38
2022-12-15T10:38:38.225Z,81.01
2022-12-15T10:41:08.270Z,80.38
2022-12-15T10:43:38.216Z,80.28
2022-12-15T10:46:21.985Z,80.37
2022-12-15T10:48:56.441Z,80.61
2022-12-15T10:51:37.060Z,81.59
2022-12-15T10:54:13.276Z,81.24
2022-12-15T10:56:52.983Z,81.01
2022-12-15T10:59:25.876Z,80.79
2022-12-15T11:01:53.360Z,80.86
2022-12-15T11:04:30.667Z,80.73
2022-12-15T11:06:59.708Z,80.80
2022-12-15T11:09:38.534Z,80.35
2022-12-15T11:12:38.472Z,81.06
2022-12-15T11:15:23.510Z,80.57
2022-12-15T11:18:11.210Z,80.82
2022-12-15T11:20:42.338Z,80.41
2022-12-15T11:23:21.711Z,79.92
2022-12-15T11:26:13.700Z,79.84
2022-12-15T11:28:50.894Z,80.62
2022-12-15T11:31:29.541Z,80.52
2022-12-15T11:33:56.258Z,81.34
2022-12-15T11:36:22.998Z,82.00
2022-12-15T11:38:59.384Z,82.83
2022-12-15T11:42:17.521Z,84.25
2022-12-15T11:45:04.549Z,84.23
2022-12-15T11:47:34.053Z,84.42
2022-12-15T11:50:17.311Z,84.45
2022-12-15T11:53:21.354Z,83.97
2022-12-15T11:56:02.157Z,83.39
2022-12-15T11:58:56.212Z,83.13
2022-12-15T12:01:28.948Z,83.40
2022-12-15T12:04:20.573Z,83.80
2022-12-15T12:07:23.484Z,85.21
2022-12-15T12:10:29.110Z,85.38
2022-12-15T12:12:58.600Z,85.22
2022-12-15T12:15:35.396Z,85.57
2022-12-15T12:18:11.879Z,84.01
2022-12-15T12:20:55.701Z,83.95
2022-12-15T12:23:30.181Z,83.86
2022-12-15T12:26:19.345Z,83.40
2022-12-15T12:28:48.883Z,82.57
2022-12-15T12:31:41.595Z,81.19
2022-12-15T12:34:20.268Z,81.07
2022-12-15T12:36:49.152Z,80.68
2022-12-15T12:39:22.670Z,79.91
2022-12-15T12:42:15.094Z,79.61
2022-12-15T12:44:41.834Z,78.81
2022-12-15T12:47:26.249Z,78.47
2022-12-15T12:50:39.486Z,77.79
2022-12-15T12:53:06.247Z,78.46
2022-12-15T12:55:32.801Z,79.19
2022-12-15T12:57:59.501Z,79.56
2022-12-15T13:00:28.592Z,79.14
2022-12-15T13:03:19.890Z,80.54
2022-12-15T13:08:51.741Z,81.68
2022-12-15T13:11:51.069Z,82.56
2022-12-15T13:14:29.957Z,81.75
2022-12-15T13:17:25.545Z,81.93
2022-12-15T13:19:58.568Z,82.69
2022-12-15T13:22:43.775Z,82.05
2022-12-15T13:25:37.525Z,82.59
2022-12-15T13:28:18.324Z,82.57
2022-12-15T13:31:16.644Z,82.25
2022-12-15T13:33:49.247Z,82.81
2022-12-15T13:36:37.789Z,82.80
2022-12-15T13:39:27.388Z,83.76
2022-12-15T13:42:31.516Z,83.57
2022-12-15T13:44:48.807Z,84.55
2022-12-15T13:47:22.165Z,85.94
2022-12-15T13:50:02.309Z,86.15
2022-12-15T13:53:08.663Z,85.59
2022-12-15T13:55:31.463Z,86.42
2022-12-15T13:58:05.329Z,86.75
2022-12-15T14:00:32.797Z,86.70
2022-12-15T14:03:07.246Z,88.07
2022-12-15T14:05:33.998Z,88.29
2022-12-15T14:08:02.936Z,88.93
2022-12-15T14:10:44.493Z,89.61
2022-12-15T14:13:34.086Z,91.17
2022-12-15T14:16:22.483Z,91.59
2022-12-15T14:19:15.617Z,91.36
2022-12-15T14:21:52.949Z,90.90
2022-12-15T14:24:39.872Z,90.84
2022-12-15T14:27:07.576Z,90.63
2022-12-15T14:29:34.429Z,90.48
2022-12-15T14:32:01.381Z,90.55
2022-12-15T14:34:33.235Z,90.44
2022-12-15T14:37:03.435Z,90.07
2022-12-15T14:39:39.547Z,89.94
2022-12-15T14:42:07.937Z,89.66
2022-12-15T14:44:41.137Z,89.84
2022-12-15T14:47:33.762Z,90.00
2022-12-15T14:50:02.553Z,90.34
2022-12-15T14:52:39.095Z,90.28
2022-12-15T14:55:20.914Z,90.74
2022-12-15T14:57:48.319Z,90.52
2022-12-15T15:00:28.398Z,90.59
2022-12-15T15:03:12.903Z,81.54
2022-12-15T15:06:01.159Z,90.33
2022-12-15T15:08:32.233Z,90.69
2022-12-15T15:11:03.666Z,90.55
2022-12-15T15:13:40.657Z,90.05
2022-12-15T15:16:15.685Z,90.16
2022-12-15T15:18:43.383Z,90.57
2022-12-15T15:21:23.213Z,90.46
2022-12-15T15:24:09.446Z,90.61
2022-12-15T15:26:36.355Z,90.38
2022-12-15T15:29:03.870Z,90.57
2022-12-15T15:31:41.504Z,90.59
2022-12-15T15:34:08.886Z,90.65
2022-12-15T15:36:38.272Z,90.56
2022-12-15T15:39:15.167Z,90.52
2022-12-15T15:41:42.676Z,90.49
2022-12-15T15:44:14.549Z,91.28
2022-12-15T15:47:00.229Z,92.01
2022-12-15T15:49:27.357Z,91.39
2022-12-15T15:51:56.054Z,91.75
2022-12-15T15:54:27.613Z,92.38
2022-12-15T15:56:54.292Z,92.09
2022-12-15T15:59:22.864Z,91.94
2022-12-15T16:01:59.219Z,92.39
2022-12-15T16:04:27.033Z,92.14
2022-12-15T16:06:54.022Z,92.45
2022-12-15T16:09:21.154Z,92.93
2022-12-15T16:11:47.854Z,92.97
2022-12-15T16:14:17.099Z,92.19
2022-12-15T16:16:44.728Z,92.71
2022-12-15T16:19:14.310Z,92.57
2022-12-15T16:21:42.599Z,92.15
2022-12-15T16:24:13.770Z,92.37
2022-12-15T16:26:47.307Z,92.48
2022-12-15T16:29:16.127Z,92.24
2022-12-15T16:31:45.632Z,92.27
2022-12-15T16:34:13.980Z,92.09
2022-12-15T16:36:41.072Z,92.55
2022-12-15T16:39:30.810Z,92.83
2022-12-15T16:41:58.228Z,92.86
2022-12-15T16:44:26.539Z,92.00
2022-12-15T16:46:53.342Z,92.39
2022-12-15T16:49:20.391Z,91.50
2022-12-15T16:51:50.432Z,92.11
2022-12-15T16:54:20.996Z,91.42
2022-12-15T16:56:48.755Z,91.42
2022-12-15T16:59:38.647Z,91.76
2022-12-15T17:02:28.432Z,91.06
2022-12-15T17:04:55.614Z,90.86
2022-12-15T17:07:24.093Z,90.39
2022-12-15T17:09:51.298Z,90.63
2022-12-15T17:12:18.797Z,90.47
2022-12-15T17:14:46.194Z,90.58
2022-12-15T17:17:18.214Z,91.05
2022-12-15T17:20:11.748Z,90.85
2022-12-15T17:22:33.251Z,90.61
2022-12-15T17:25:00.051Z,91.00
2022-12-15T17:27:29.412Z,90.88
2022-12-15T17:29:59.522Z,91.09
2022-12-15T17:32:26.750Z,91.62
2022-12-15T17:34:53.462Z,90.63
2022-12-15T17:37:20.170Z,91.08
2022-12-15T17:39:51.245Z,91.11
2022-12-15T17:42:20.547Z,91.02
2022-12-15T17:44:48.620Z,90.75
2022-12-15T17:47:16.607Z,91.01
2022-12-15T17:49:43.826Z,91.62
2022-12-15T17:52:26.230Z,90.95
2022-12-15T17:54:53.504Z,91.11
2022-12-15T17:57:20.270Z,91.53
2022-12-15T17:59:47.298Z,90.55
2022-12-15T18:02:14.486Z,90.63
2022-12-15T18:04:42.172Z,90.70
2022-12-15T18:07:21.493Z,91.05
2022-12-15T18:09:50.090Z,91.54
2022-12-15T18:12:26.188Z,90.71
2022-12-15T18:14:54.362Z,90.05
2022-12-15T18:17:21.416Z,90.58
2022-12-15T18:19:48.780Z,90.47
2022-12-15T18:22:23.757Z,90.80
2022-12-15T18:24:52.894Z,91.11
2022-12-15T18:27:28.180Z,91.09
2022-12-15T18:29:56.492Z,90.90
2022-12-15T18:32:25.837Z,90.83
2022-12-15T18:34:53.482Z,90.64
2022-12-15T18:37:23.061Z,90.86
2022-12-15T18:39:50.705Z,91.42
2022-12-15T18:42:20.453Z,91.07
2022-12-15T18:44:50.288Z,91.12
2022-12-15T18:47:18.893Z,91.19
2022-12-15T18:49:45.860Z,91.28
2022-12-15T18:52:23.847Z,90.83
2022-12-15T18:54:53.223Z,91.21
2022-12-15T18:57:28.752Z,91.37
2022-12-15T18:59:59.551Z,91.52
2022-12-15T19:02:26.239Z,91.37
2022-12-15T19:04:53.043Z,91.59
2022-12-15T19:07:19.776Z,91.02
2022-12-15T19:09:46.530Z,91.28
2022-12-15T19:12:18.733Z,91.52
2022-12-15T19:14:47.454Z,91.35
2022-12-15T19:17:37.968Z,91.15
2022-12-15T19:20:30.612Z,90.72
2022-12-15T19:22:57.260Z,90.77
2022-12-15T19:25:30.628Z,90.64
2022-12-15T19:27:59.812Z,91.02
2022-12-15T19:30:36.977Z,91.20
2022-12-15T19:33:09.219Z,92.49
2022-12-15T19:35:36.995Z,93.03
2022-12-15T19:38:04.906Z,93.58
2022-12-15T19:40:34.458Z,93.24
2022-12-15T19:43:04.204Z,93.46
2022-12-15T19:45:32.270Z,93.39
2022-12-15T19:47:59.122Z,93.40
2022-12-15T19:50:30.438Z,93.33
2022-12-15T19:53:00.238Z,92.76
2022-12-15T19:55:30.066Z,92.75
2022-12-15T19:57:56.720Z,92.84
2022-12-15T20:00:24.848Z,93.48
2022-12-15T20:02:54.682Z,93.64
2022-12-15T20:05:24.036Z,94.33
2022-12-15T20:07:53.672Z,94.84
2022-12-15T20:10:31.269Z,94.09
2022-12-15T20:12:59.023Z,94.42
2022-12-15T20:15:26.339Z,94.06
2022-12-15T20:17:59.013Z,93.34
2022-12-15T20:20:27.954Z,93.75
2022-12-15T20:22:58.846Z,93.87
2022-12-15T20:25:28.599Z,93.38
2022-12-15T20:27:56.322Z,93.73
2022-12-15T20:30:26.871Z,94.82
2022-12-15T20:32:53.850Z,94.12
2022-12-15T20:35:22.458Z,93.13
2022-12-15T20:37:50.316Z,93.41
2022-12-15T20:40:20.716Z,93.91
2022-12-15T20:42:48.143Z,93.66
2022-12-15T20:45:16.648Z,94.30
2022-12-15T20:47:46.176Z,93.96
2022-12-15T20:50:31.747Z,94.39
2022-12-15T20:52:58.549Z,94.71
2022-12-15T20:55:25.351Z,94.40
2022-12-15T20:57:52.307Z,94.78
2022-12-15T21:00:19.489Z,94.20
2022-12-15T21:02:46.901Z,94.63
2022-12-15T21:05:19.849Z,94.45
2022-12-15T21:07:47.263Z,95.01
2022-12-15T21:10:16.045Z,95.57
2022-12-15T21:12:45.551Z,94.61
2022-12-15T21:15:15.202Z,94.76
2022-12-15T21:17:42.828Z,94.05
2022-12-15T21:20:11.755Z,93.63
2022-12-15T21:22:38.945Z,92.72
2022-12-15T21:25:16.598Z,93.48
2022-12-15T21:27:43.339Z,93.34
2022-12-15T21:30:20.542Z,93.16
2022-12-15T21:32:48.891Z,93.25
2022-12-15T21:35:17.347Z,94.17
2022-12-15T21:37:47.248Z,93.76
2022-12-15T21:40:22.018Z,93.52
2022-12-15T21:42:50.023Z,94.04
2022-12-15T21:45:22.393Z,94.27
2022-12-15T21:48:09.752Z,93.82
2022-12-15T21:50:37.955Z,93.68
2022-12-15T21:53:06.365Z,93.72
2022-12-15T21:55:33.555Z,93.43
2022-12-15T21:58:00.165Z,94.05
2022-12-15T22:00:26.968Z,93.89
2022-12-15T22:02:54.496Z,93.96
2022-12-15T22:05:30.249Z,93.40
2022-12-15T22:08:15.658Z,93.07
2022-12-15T22:10:42.984Z,92.72
2022-12-15T22:13:14.802Z,92.91
2022-12-15T22:15:41.506Z,93.67
2022-12-15T22:18:12.015Z,93.21
2022-12-15T22:20:39.248Z,93.49
2022-12-15T22:23:06.108Z,93.35
2022-12-15T22:25:32.720Z,93.07
2022-12-15T22:27:59.347Z,92.84
2022-12-15T22:30:27.158Z,93.25
2022-12-15T22:32:54.204Z,93.51
2022-12-15T22:35:25.949Z,93.57
2022-12-15T22:37:53.969Z,93.45
2022-12-15T22:40:22.957Z,93.20
2022-12-15T22:42:53.549Z,93.35
2022-12-15T22:45:24.007Z,93.36
2022-12-15T22:47:52.408Z,93.09
2022-12-15T22:50:23.532Z,93.25
2022-12-15T22:52:50.696Z,93.48
2022-12-15T22:55:20.860Z,92.94
2022-12-15T22:57:56.719Z,92.95
2022-12-15T23:00:23.436Z,92.82
2022-12-15T23:02:51.024Z,92.65
2022-12-15T23:05:20.203Z,92.97
2022-12-15T23:07:47.063Z,92.82
2022-12-15T23:10:39.233Z,92.56
2022-12-15T23:13:06.490Z,93.30
2022-12-15T23:15:52.173Z,93.23
2022-12-15T23:18:19.171Z,92.72
2022-12-15T23:20:45.769Z,92.21
2022-12-15T23:23:12.766Z,92.57
2022-12-15T23:25:39.439Z,92.99
2022-12-15T23:28:06.149Z,93.01
2022-12-15T23:30:32.835Z,92.69
2022-12-15T23:32:59.842Z,92.99
2022-12-15T23:35:26.781Z,93.11
2022-12-15T23:37:53.484Z,93.42
2022-12-15T23:40:22.229Z,93.83
2022-12-15T23:42:50.512Z,93.81
2022-12-15T23:45:18.162Z,93.81
2022-12-15T23:47:45.101Z,93.42
2022-12-15T23:50:11.795Z,92.81
2022-12-15T23:52:38.835Z,93.13
2022-12-15T23:55:09.912Z,93.33
2022-12-15T23:57:38.063Z,93.36
